Google Maps JavaScript API Example
Pilot Flight Report # 93360 Submitted by : AST154 on 2019-10-27
Date: 2019-10-27Aircraft: Boeing 737-800
Flight No.: AST20233Distance (Nm): 1127.84
Departure: KMSY - Armstrong New Orleans InternationalDestination: KPHX - Phoenix Sky Harbor International
 TimeFuelWeightSpeeds  
Out (Taxi)1359Z30649 lbs139214 lbs Flight RulesIFR
Off (Takeoff)1404Z 138619 lbs163 ktsFlight Level36000
On (Landing)1721Z 112870 lbs137 ktsVSTD-253 ft/min
In (Ramp)1730Z3792 lbs112349 lbs ZFW108561 lbs
Flight3.30  -  3:1725745 lbs  Pax0
Block3.52  -  3:3126857 lbs  Cargo0
Departure WeatherKMSY 261346Z 20013KT 50SM SKC 27/18 A3002
Destination WeatherKPHX 261730Z 25304KT 50SM FEW028 11/5 A3012
Flight CommentsGreat flight...